Time;durP1;ratioP1;P1;durP2;ratioP2;P2;SDS_P1;SDS_P2;PMS_P1;PMS_P2;Temp;Humidity;BMP_temperature;BMP_pressure;BME280_temperature;BME280_humidity;BME280_pressure;Samples;Min_cycle;Max_cycle;Signal;HPM_P1;HPM_P2
2023/07/13 00:02:21;;;;;;;18.92;3.00;;;;;;;-146.27;80.96;81697.22;5046740;28;20025;-72
2023/07/13 00:04:47;;;;;;;15.98;2.58;;;;;;;-146.27;80.64;81765.53;5050410;28;20061;-73
2023/07/13 00:07:14;;;;;;;14.48;2.63;;;;;;;-146.27;80.56;81695.22;5069164;28;20039;-72
2023/07/13 00:09:39;;;;;;;21.67;3.65;;;;;;;-146.27;80.64;81687.19;5054467;28;20028;-72
2023/07/13 00:12:21;;;;;;;12.25;2.70;;;;;;;-146.27;80.81;81719.31;5071081;28;20142;-72
2023/07/13 00:14:46;;;;;;;16.27;2.90;;;;;;;-146.27;80.51;81689.19;5068801;28;20750;-72
2023/07/13 00:17:13;;;;;;;17.75;3.22;;;;;;;-146.27;80.38;81703.25;5065552;28;20032;-73
2023/07/13 00:19:38;;;;;;;15.75;2.28;;;;;;;-146.27;80.26;81685.19;5081654;28;20461;-72
2023/07/13 00:22:04;;;;;;;18.35;3.90;;;;;;;-146.27;80.48;81689.19;5067508;28;20048;-72
2023/07/13 00:24:29;;;;;;;16.23;2.90;;;;;;;-146.27;80.37;81669.13;5071225;28;20036;-73
2023/07/13 00:26:55;;;;;;;18.85;2.90;;;;;;;-146.27;79.84;81653.06;5060112;28;20457;-71
2023/07/13 00:29:21;;;;;;;18.52;2.80;;;;;;;-146.27;79.57;81612.88;5077538;28;20126;-72
2023/07/13 00:31:46;;;;;;;17.27;2.80;;;;;;;-146.27;80.23;81725.34;5053855;28;20021;-72
2023/07/13 00:34:12;;;;;;;13.10;2.97;;;;;;;-146.27;79.73;81636.97;5063269;28;20041;-72
2023/07/13 00:36:37;;;;;;;15.80;2.85;;;;;;;-146.27;80.26;81705.28;5052262;28;20017;-72
2023/07/13 00:39:03;;;;;;;16.55;3.42;;;;;;;-146.27;80.32;81689.19;5059090;28;20380;-72
2023/07/13 00:41:29;;;;;;;12.38;2.80;;;;;;;-146.27;80.13;81705.28;5068349;28;20048;-72
2023/07/13 00:43:54;;;;;;;12.98;2.45;;;;;;;-146.27;79.77;81687.19;5072153;28;20395;-71
2023/07/13 00:46:26;;;;;;;14.48;2.53;;;;;;;-146.27;79.33;81673.13;5059769;28;20029;-72
2023/07/13 00:48:55;;;;;;;15.07;2.55;;;;;;;-146.27;79.02;81683.19;5062731;28;20029;-72
2023/07/13 00:51:31;;;;;;;11.48;2.28;;;;;;;-146.27;79.67;81705.28;5066853;28;20482;-72
2023/07/13 00:53:59;;;;;;;15.32;2.22;;;;;;;-146.27;79.31;81661.09;5068671;28;20051;-72
2023/07/13 00:56:25;;;;;;;11.27;2.50;;;;;;;-146.27;79.11;81677.16;5074882;28;20032;-72
2023/07/13 00:58:51;;;;;;;17.13;2.47;;;;;;;-146.27;78.54;81604.84;5073453;28;20031;-72
2023/07/13 01:01:17;;;;;;;8.95;1.85;;;;;;;-146.27;78.35;81741.41;5071666;28;20048;-71
2023/07/13 01:03:43;;;;;;;13.13;2.47;;;;;;;-146.27;77.94;81697.22;5060858;28;20122;-72
2023/07/13 01:06:08;;;;;;;16.27;2.47;;;;;;;-146.27;78.55;81717.31;5055018;28;20141;-73
2023/07/13 01:08:34;;;;;;;12.07;2.33;;;;;;;-146.27;78.03;81701.25;5069330;28;20349;-72
2023/07/13 01:10:59;;;;;;;16.40;2.35;;;;;;;-146.27;77.91;81717.31;5047926;28;20497;-73
2023/07/13 01:13:26;;;;;;;12.65;2.40;;;;;;;-146.27;77.97;81689.19;5065562;28;20044;-72
2023/07/13 01:15:53;;;;;;;14.32;3.42;;;;;;;-146.27;77.86;81705.28;5055596;28;20031;-72
2023/07/13 01:18:28;;;;;;;13.32;1.88;;;;;;;-146.27;77.23;81729.38;5063063;28;20400;-73
2023/07/13 01:20:59;;;;;;;12.18;2.10;;;;;;;-146.27;77.01;81701.25;5064238;28;20035;-73
2023/07/13 01:23:25;;;;;;;11.65;2.17;;;;;;;-146.27;77.56;81733.38;5058085;28;20036;-73
2023/07/13 01:25:52;;;;;;;15.70;2.03;;;;;;;-146.27;77.26;81737.41;5047925;28;20516;-72
2023/07/13 01:28:18;;;;;;;11.30;1.92;;;;;;;-146.27;77.53;81725.34;5055045;28;20029;-73
2023/07/13 01:30:45;;;;;;;13.00;2.10;;;;;;;-146.27;77.29;81761.50;5058507;28;20025;-73
2023/07/13 01:33:16;;;;;;;10.02;1.95;;;;;;;-146.27;77.37;81771.53;5047368;28;20269;-74
2023/07/13 01:35:43;;;;;;;9.15;1.85;;;;;;;-146.27;77.46;81803.69;5053098;28;20107;-73
2023/07/13 01:38:10;;;;;;;10.40;2.05;;;;;;;-146.27;77.48;81789.63;5055212;28;20028;-73
2023/07/13 01:40:36;;;;;;;9.60;1.73;;;;;;;-146.27;78.02;81789.63;5079194;28;20032;-73
2023/07/13 01:43:02;;;;;;;9.57;1.80;;;;;;;-146.27;78.10;81809.72;5059040;28;20134;-73
2023/07/13 01:45:28;;;;;;;10.35;1.63;;;;;;;-146.27;78.05;81795.66;5073758;28;20437;-73
2023/07/13 01:47:54;;;;;;;9.40;1.38;;;;;;;-146.27;77.97;81821.75;5056494;28;20059;-73
2023/07/13 01:50:19;;;;;;;4.57;1.10;;;;;;;-146.27;78.11;81801.69;5065148;28;20291;-72
2023/07/13 01:52:45;;;;;;;5.53;1.30;;;;;;;-146.27;77.72;81801.69;5073294;28;20021;-73
2023/07/13 01:55:10;;;;;;;3.22;1.00;;;;;;;-146.27;77.75;81809.72;5078237;28;20029;-72
2023/07/13 01:57:36;;;;;;;12.90;1.42;;;;;;;-146.27;77.87;81847.88;5067084;28;20488;-73
2023/07/13 02:00:04;;;;;;;11.00;1.42;;;;;;;-146.27;78.16;81859.94;5056383;28;20028;-73
2023/07/13 02:02:30;;;;;;;6.63;1.35;;;;;;;-146.27;77.81;81837.81;5063528;28;20024;-72
2023/07/13 02:04:55;;;;;;;3.97;1.42;;;;;;;-146.27;78.74;81851.88;5065549;28;20040;-73
2023/07/13 02:07:21;;;;;;;8.27;1.73;;;;;;;-146.27;79.17;81861.94;5066174;28;20028;-72
2023/07/13 02:09:47;;;;;;;7.90;1.42;;;;;;;-146.27;79.91;81906.13;5067963;28;20024;-73
2023/07/13 02:12:12;;;;;;;10.52;1.58;;;;;;;-146.27;80.75;81890.06;5071431;28;20060;-72
2023/07/13 02:14:38;;;;;;;8.60;1.52;;;;;;;-146.27;80.76;81922.19;5064378;28;20054;-72
2023/07/13 02:17:04;;;;;;;12.82;1.55;;;;;;;-146.27;81.01;81954.31;5071390;28;20043;-73
2023/07/13 02:19:29;;;;;;;6.47;1.38;;;;;;;-146.27;80.48;81890.06;5069229;28;20025;-72
2023/07/13 02:21:54;;;;;;;6.60;1.60;;;;;;;-146.27;80.19;81998.50;5062140;28;20040;-73
2023/07/13 02:24:20;;;;;;;6.80;1.08;;;;;;;-146.27;80.44;81994.50;5057259;28;20029;-73
2023/07/13 02:26:46;;;;;;;13.10;1.52;;;;;;;-146.27;80.51;82000.53;5061189;28;20086;-73
2023/07/13 02:29:11;;;;;;;7.05;1.45;;;;;;;-146.27;80.55;81968.38;5067838;28;20032;-73
2023/07/13 02:31:37;;;;;;;5.38;1.33;;;;;;;-146.27;80.11;81986.47;5073491;28;20027;-72
2023/07/13 02:34:03;;;;;;;4.68;1.00;;;;;;;-146.27;79.95;81974.41;5059536;28;20476;-72
2023/07/13 02:36:30;;;;;;;8.45;1.52;;;;;;;-146.27;80.34;81994.50;5067520;28;20029;-73
2023/07/13 02:38:55;;;;;;;7.68;1.48;;;;;;;-146.27;80.77;82004.53;5069201;28;20027;-72
2023/07/13 02:41:22;;;;;;;7.03;1.13;;;;;;;-146.27;80.18;81994.50;5068186;28;20021;-72
2023/07/13 02:43:48;;;;;;;6.15;1.20;;;;;;;-146.27;80.10;81980.44;5067774;28;20039;-73
2023/07/13 02:46:13;;;;;;;11.65;1.38;;;;;;;-146.27;80.04;81992.50;5074740;28;20404;-73
2023/07/13 02:48:39;;;;;;;7.93;1.85;;;;;;;-146.27;80.13;81976.41;5069310;28;20032;-73
2023/07/13 02:51:05;;;;;;;7.40;1.23;;;;;;;-146.27;80.97;81962.34;5067424;28;20047;-73
2023/07/13 02:53:31;;;;;;;7.35;1.52;;;;;;;-146.27;80.97;81998.50;5051247;28;20062;-73
2023/07/13 02:55:57;;;;;;;7.72;1.27;;;;;;;-146.27;81.13;82006.53;5072640;28;20078;-73
2023/07/13 02:58:22;;;;;;;6.72;1.52;;;;;;;-146.27;81.50;82018.59;5072562;28;20119;-73
2023/07/13 03:00:49;;;;;;;11.25;1.60;;;;;;;-146.27;82.10;82028.66;5079234;28;20063;-73
2023/07/13 03:03:16;;;;;;;7.78;1.95;;;;;;;-146.27;82.69;82034.66;5080209;28;20021;-73
2023/07/13 03:05:43;;;;;;;6.97;1.45;;;;;;;-146.27;82.79;82026.63;5059781;28;20025;-71
2023/07/13 03:08:12;;;;;;;5.68;1.90;;;;;;;-146.27;83.23;82070.81;5070126;28;20107;-72
2023/07/13 03:10:39;;;;;;;10.07;2.10;;;;;;;-146.27;83.71;82082.88;5072568;28;20503;-71
2023/07/13 03:13:05;;;;;;;13.88;1.90;;;;;;;-146.27;84.46;82018.59;5053755;28;20063;-72
2023/07/13 03:15:31;;;;;;;10.40;1.88;;;;;;;-146.27;84.65;82082.88;5050984;28;20485;-71
2023/07/13 03:17:56;;;;;;;8.32;2.38;;;;;;;-146.27;85.21;82050.75;5052663;28;20429;-71
2023/07/13 03:20:22;;;;;;;12.73;2.20;;;;;;;-146.27;85.10;82016.59;5076215;28;20032;-72
2023/07/13 03:22:47;;;;;;;7.88;2.55;;;;;;;-146.27;85.67;82044.72;5062404;28;20032;-71
2023/07/13 03:25:12;;;;;;;13.00;2.28;;;;;;;-146.27;85.76;82038.69;5064181;28;20035;-71
2023/07/13 03:27:38;;;;;;;13.45;2.33;;;;;;;-146.27;85.77;81994.50;5071046;28;20031;-72
2023/07/13 03:30:07;;;;;;;11.60;2.00;;;;;;;-146.27;86.10;82024.63;5081753;28;20048;-72
2023/07/13 03:32:33;;;;;;;9.38;1.70;;;;;;;-146.27;86.18;82026.63;5075482;28;20024;-71
2023/07/13 03:34:58;;;;;;;10.32;1.90;;;;;;;-146.27;86.75;82022.63;5066303;28;20024;-72
2023/07/13 03:37:24;;;;;;;15.73;2.88;;;;;;;-146.27;86.30;82006.53;5069483;28;20092;-72
2023/07/13 03:39:50;;;;;;;10.02;2.65;;;;;;;-146.27;86.72;81994.50;5080258;28;20077;-72
2023/07/13 03:42:15;;;;;;;11.98;2.30;;;;;;;-146.27;87.30;82032.66;5086977;28;20487;-71
2023/07/13 03:44:42;;;;;;;13.13;2.47;;;;;;;-146.27;87.46;82018.59;5069062;28;20175;-71
2023/07/13 03:47:08;;;;;;;11.90;2.42;;;;;;;-146.27;87.70;82014.59;5074186;28;20028;-71
2023/07/13 03:49:34;;;;;;;15.35;2.75;;;;;;;-146.27;87.67;82028.66;5064921;28;20021;-72
2023/07/13 03:52:00;;;;;;;9.52;2.17;;;;;;;-146.27;88.13;82042.69;5099426;28;20495;-70
2023/07/13 03:54:26;;;;;;;10.93;2.55;;;;;;;-146.27;88.24;82026.63;5080551;28;20056;-74
2023/07/13 03:56:52;;;;;;;14.95;3.13;;;;;;;-146.27;88.43;82034.66;5071260;28;20484;-72
2023/07/13 03:59:17;;;;;;;20.38;3.35;;;;;;;-146.27;88.59;82016.59;5076628;28;20035;-71
2023/07/13 04:01:44;;;;;;;10.68;2.35;;;;;;;-146.27;89.22;82042.69;5071398;28;20117;-71
2023/07/13 04:04:09;;;;;;;16.17;2.22;;;;;;;-146.27;89.17;82010.56;5063724;28;20028;-72
2023/07/13 04:06:35;;;;;;;11.63;2.42;;;;;;;-146.27;88.92;82002.53;5064211;28;20047;-72
2023/07/13 04:09:05;;;;;;;18.45;2.90;;;;;;;-146.27;89.13;82002.53;5062778;28;20090;-71
2023/07/13 04:11:31;;;;;;;18.20;3.63;;;;;;;-146.27;89.16;82010.56;5085375;28;20049;-71
2023/07/13 04:13:57;;;;;;;13.25;3.15;;;;;;;-146.27;89.18;81954.31;5063240;28;20035;-71
2023/07/13 04:16:23;;;;;;;13.88;2.67;;;;;;;-146.27;89.10;81966.38;5064651;28;20029;-71
2023/07/13 04:18:49;;;;;;;19.55;2.60;;;;;;;-146.27;88.81;81986.47;5066316;28;20024;-71
2023/07/13 04:21:15;;;;;;;15.13;3.08;;;;;;;-146.27;89.13;81962.34;5082896;28;20098;-72
2023/07/13 04:23:42;;;;;;;13.00;4.00;;;;;;;-146.27;89.24;81892.06;5081003;28;20024;-72
2023/07/13 04:26:08;;;;;;;13.68;3.13;;;;;;;-146.27;89.16;81942.28;5059215;28;20029;-72
2023/07/13 04:28:34;;;;;;;10.40;2.35;;;;;;;-146.27;89.08;81942.28;5078548;28;20537;-72
2023/07/13 04:31:00;;;;;;;16.52;2.50;;;;;;;-146.27;89.21;81982.44;5055334;28;20100;-72
2023/07/13 04:33:28;;;;;;;13.32;2.80;;;;;;;-146.27;89.22;81894.06;5052170;28;20341;-73
2023/07/13 04:35:59;;;;;;;23.15;3.40;;;;;;;-146.27;89.25;81958.34;5063173;28;20020;-73
2023/07/13 04:38:31;;;;;;;16.30;3.20;;;;;;;-146.27;89.23;81908.13;5050678;28;20397;-72
2023/07/13 04:41:00;;;;;;;13.07;2.90;;;;;;;-146.27;89.09;81876.00;5062765;28;20078;-72
2023/07/13 04:43:25;;;;;;;9.20;2.72;;;;;;;-146.27;88.94;81873.97;5074743;28;20024;-72
2023/07/13 04:45:51;;;;;;;19.33;3.00;;;;;;;-146.27;89.71;81861.94;5074939;28;20039;-71
2023/07/13 04:48:17;;;;;;;11.82;2.92;;;;;;;-146.27;89.46;81867.97;5075621;28;20028;-72
2023/07/13 04:50:43;;;;;;;18.95;4.47;;;;;;;-146.27;88.68;81845.88;5061627;28;20520;-72
2023/07/13 04:53:10;;;;;;;10.35;3.15;;;;;;;-146.27;88.32;81847.88;5065621;28;20032;-73
2023/07/13 04:55:36;;;;;;;14.95;2.92;;;;;;;-146.27;88.03;81835.81;5072526;28;20021;-73
2023/07/13 04:58:02;;;;;;;15.13;2.85;;;;;;;-146.27;88.08;81831.81;5068406;28;20039;-74
2023/07/13 05:00:29;;;;;;;15.93;2.90;;;;;;;-146.27;87.89;81801.69;5064960;28;20021;-72
2023/07/13 05:02:58;;;;;;;9.52;2.25;;;;;;;-146.27;87.31;81787.63;5062693;28;20140;-71
2023/07/13 05:05:26;;;;;;;12.85;2.88;;;;;;;-146.27;87.00;81753.47;5066614;28;20511;-71
2023/07/13 05:07:52;;;;;;;10.40;2.45;;;;;;;-146.27;86.61;81799.66;5061929;28;20504;-72
2023/07/13 05:10:18;;;;;;;11.32;2.22;;;;;;;-146.27;86.63;81813.72;5053823;28;20057;-72
2023/07/13 05:12:43;;;;;;;11.35;2.22;;;;;;;-146.27;86.46;81779.59;5068819;28;20159;-73
2023/07/13 05:15:09;;;;;;;15.55;2.80;;;;;;;-146.27;86.12;81759.50;5061315;28;20020;-72
2023/07/13 05:17:35;;;;;;;9.07;3.30;;;;;;;-146.27;85.70;81715.31;5052934;28;20025;-72
2023/07/13 05:20:00;;;;;;;10.15;2.42;;;;;;;-146.27;85.04;81697.22;5078912;28;20551;-72
2023/07/13 05:22:25;;;;;;;11.25;2.33;;;;;;;-146.27;84.58;81715.31;5070169;28;20063;-72
2023/07/13 05:24:51;;;;;;;10.68;2.30;;;;;;;-146.27;84.15;81669.13;5072012;28;20103;-72
2023/07/13 05:27:16;;;;;;;13.55;2.35;;;;;;;-146.27;83.41;81733.38;5071971;28;20326;-72
2023/07/13 05:29:42;;;;;;;7.45;2.08;;;;;;;-146.27;83.85;81691.22;5069196;28;20043;-73
2023/07/13 05:32:07;;;;;;;12.82;2.88;;;;;;;-146.27;83.39;81667.09;5070806;28;20239;-73
2023/07/13 05:34:33;;;;;;;12.48;2.20;;;;;;;-146.27;82.93;81705.28;5073118;28;20028;-73
2023/07/13 05:36:58;;;;;;;9.35;2.53;;;;;;;-146.27;82.17;81697.22;5062843;28;20052;-73
2023/07/13 05:39:24;;;;;;;11.02;2.50;;;;;;;-146.27;82.08;81717.31;5052286;28;20086;-72
2023/07/13 05:41:51;;;;;;;11.15;2.35;;;;;;;-146.27;81.79;81779.59;5069131;28;20028;-73
2023/07/13 05:44:16;;;;;;;5.60;1.80;;;;;;;-146.27;80.70;81747.44;5069784;28;20062;-72
2023/07/13 05:46:41;;;;;;;7.75;2.22;;;;;;;-146.27;80.52;81713.31;5071844;28;20020;-73
2023/07/13 05:49:07;;;;;;;7.72;1.85;;;;;;;-146.27;80.04;81643.00;5071083;28;20012;-73
2023/07/13 05:51:32;;;;;;;8.77;2.00;;;;;;;-146.27;79.30;81707.28;5070977;28;20024;-73
2023/07/13 05:53:58;;;;;;;7.40;2.10;;;;;;;-146.27;78.77;81616.91;5085400;28;20085;-73
2023/07/13 05:56:23;;;;;;;9.73;1.70;;;;;;;-146.27;78.02;81602.84;5090480;28;20028;-73
2023/07/13 05:58:49;;;;;;;5.63;1.85;;;;;;;-146.27;77.90;81608.88;5080494;28;20488;-73
2023/07/13 06:01:16;;;;;;;7.93;1.88;;;;;;;-146.27;77.37;81620.91;5068886;28;20039;-72
2023/07/13 06:03:41;;;;;;;6.93;1.98;;;;;;;-146.27;77.08;81669.13;5066983;28;20020;-73
2023/07/13 06:06:08;;;;;;;8.40;2.17;;;;;;;-146.27;77.02;81673.13;5064395;28;20032;-72
2023/07/13 06:08:34;;;;;;;6.57;2.05;;;;;;;-146.27;77.20;81685.19;5070120;28;20107;-72
2023/07/13 06:11:05;;;;;;;7.95;2.45;;;;;;;-146.27;76.90;81639.00;5069452;28;20032;-71
2023/07/13 06:13:30;;;;;;;11.02;2.30;;;;;;;-146.27;77.18;81657.06;5068655;28;20091;-72
2023/07/13 06:15:56;;;;;;;6.32;1.77;;;;;;;-146.27;77.01;81628.94;5067936;28;20012;-72
2023/07/13 06:18:21;;;;;;;7.95;1.90;;;;;;;-146.27;76.54;81687.19;5068152;28;20025;-73
2023/07/13 06:20:47;;;;;;;8.80;2.30;;;;;;;-146.27;76.86;81665.09;5067326;28;20161;-73
2023/07/13 06:23:12;;;;;;;6.60;1.80;;;;;;;-146.27;76.61;81669.13;5070277;28;20024;-72
2023/07/13 06:25:38;;;;;;;9.48;2.25;;;;;;;-146.27;76.63;81641.00;5069807;28;20028;-73
2023/07/13 06:28:03;;;;;;;9.43;2.10;;;;;;;-146.27;76.37;81604.84;5069895;28;20051;-73
2023/07/13 06:30:29;;;;;;;6.57;1.58;;;;;;;-146.27;76.55;81600.84;5069229;28;20052;-72
2023/07/13 06:32:54;;;;;;;12.32;2.13;;;;;;;-146.27;75.95;81542.59;5067580;28;20031;-72
2023/07/13 06:35:19;;;;;;;11.10;2.40;;;;;;;-146.27;75.74;81554.63;5067909;28;20020;-72
2023/07/13 06:37:47;;;;;;;7.50;2.10;;;;;;;-146.27;75.21;81532.53;5068223;28;20024;-72
2023/07/13 06:40:12;;;;;;;5.50;1.85;;;;;;;-146.27;75.26;81614.88;5069776;28;20035;-72
2023/07/13 06:42:38;;;;;;;7.00;1.73;;;;;;;-146.27;74.77;81556.66;5081123;28;20017;-72
2023/07/13 06:45:04;;;;;;;9.40;1.77;;;;;;;-146.27;74.44;81504.44;5068665;28;20020;-72
2023/07/13 06:47:30;;;;;;;8.93;2.13;;;;;;;-146.27;74.56;81540.56;5063806;28;20123;-70
2023/07/13 06:49:55;;;;;;;11.32;2.80;;;;;;;-146.27;73.75;81506.44;5060066;28;20095;-71
2023/07/13 06:52:20;;;;;;;6.10;2.20;;;;;;;-146.27;73.89;81524.50;5075279;28;20031;-70
2023/07/13 06:54:46;;;;;;;7.00;2.10;;;;;;;-146.27;73.82;81512.47;5061635;28;20039;-70
2023/07/13 06:57:11;;;;;;;7.95;1.80;;;;;;;-146.27;73.62;81526.53;5066043;28;20032;-70
2023/07/13 06:59:37;;;;;;;10.60;2.22;;;;;;;-146.27;73.41;81536.56;5068982;28;20246;-70
2023/07/13 07:02:02;;;;;;;7.25;1.90;;;;;;;-146.27;73.42;81484.34;5070076;28;20025;-69
2023/07/13 07:04:28;;;;;;;12.25;2.58;;;;;;;-146.27;73.55;81542.59;5069903;28;20032;-71
2023/07/13 07:06:54;;;;;;;7.00;1.83;;;;;;;-146.27;74.01;81524.50;5064064;28;20074;-71
2023/07/13 07:09:19;;;;;;;12.05;2.55;;;;;;;-146.27;74.14;81564.69;5073291;28;20238;-71
2023/07/13 07:11:45;;;;;;;8.93;2.25;;;;;;;-146.27;74.17;81464.25;5069730;28;20356;-70
2023/07/13 07:14:10;;;;;;;5.35;1.60;;;;;;;-146.27;73.81;81520.50;5069904;28;20024;-71
2023/07/13 07:16:36;;;;;;;4.05;2.15;;;;;;;-146.27;73.18;81504.44;5068537;28;20162;-71
2023/07/13 07:19:01;;;;;;;9.05;2.42;;;;;;;-146.27;73.07;81480.31;5067946;28;20027;-71
2023/07/13 07:21:27;;;;;;;5.75;2.10;;;;;;;-146.27;73.05;81480.31;5069889;28;20043;-71
2023/07/13 07:23:53;;;;;;;9.63;2.35;;;;;;;-146.27;72.74;81456.22;5067014;28;20484;-72
2023/07/13 07:26:18;;;;;;;8.15;2.00;;;;;;;-146.27;73.21;81464.25;5069096;28;20040;-72
2023/07/13 07:28:44;;;;;;;5.35;1.83;;;;;;;-146.27;72.93;81468.28;5068970;28;20031;-72
2023/07/13 07:31:10;;;;;;;5.78;1.40;;;;;;;-146.27;73.56;81550.63;5071645;28;20020;-72
2023/07/13 07:33:36;;;;;;;6.97;2.08;;;;;;;-146.27;74.23;81556.66;5073187;28;20028;-71
2023/07/13 07:36:03;;;;;;;7.55;1.95;;;;;;;-146.27;73.54;81552.63;5060004;28;20055;-70
2023/07/13 07:38:28;;;;;;;7.65;1.95;;;;;;;-146.27;73.56;81554.63;5073732;28;20691;-71
2023/07/13 07:40:54;;;;;;;4.38;1.95;;;;;;;-146.27;73.56;81496.41;5084133;28;20016;-71
2023/07/13 07:43:19;;;;;;;10.27;2.08;;;;;;;-146.27;73.55;81524.50;5077047;28;20358;-70
2023/07/13 07:45:46;;;;;;;12.57;2.55;;;;;;;-146.27;74.03;81468.28;5058118;28;20032;-73
2023/07/13 07:48:12;;;;;;;11.73;2.15;;;;;;;-146.27;73.07;81472.28;5058881;28;20043;-73
2023/07/13 07:50:38;;;;;;;7.00;1.83;;;;;;;-146.27;72.34;81408.03;5069974;28;20040;-75
2023/07/13 07:53:07;;;;;;;10.07;2.05;;;;;;;-146.27;72.10;81440.16;5072460;28;20048;-74
2023/07/13 07:55:34;;;;;;;9.07;2.00;;;;;;;-146.27;72.24;81460.25;5062628;28;20484;-74
2023/07/13 07:58:00;;;;;;;9.25;2.20;;;;;;;-146.27;72.13;81442.16;5058924;28;20170;-73
2023/07/13 08:00:26;;;;;;;6.32;2.20;;;;;;;-146.27;72.30;81486.34;5063349;28;20103;-74
2023/07/13 08:02:52;;;;;;;11.57;2.53;;;;;;;-146.27;72.21;81512.47;5072541;28;20051;-74
2023/07/13 08:05:17;;;;;;;12.65;2.78;;;;;;;-146.27;71.78;81438.16;5068954;28;20535;-73
2023/07/13 08:07:43;;;;;;;5.65;1.90;;;;;;;-146.27;70.71;81406.03;5071565;28;20039;-74
2023/07/13 08:10:09;;;;;;;8.80;2.35;;;;;;;-146.27;70.84;81395.97;5072589;28;20103;-73
2023/07/13 08:12:36;;;;;;;8.20;2.55;;;;;;;-146.27;70.59;81299.59;5064743;28;20067;-74
2023/07/13 08:15:02;;;;;;;6.05;2.08;;;;;;;-146.27;69.85;81267.44;5072164;28;20035;-74
2023/07/13 08:17:27;;;;;;;6.43;2.10;;;;;;;-146.27;69.32;81311.63;5068321;28;20400;-74
2023/07/13 08:19:53;;;;;;;7.28;1.95;;;;;;;-146.27;69.75;81243.34;5062047;28;20024;-74
2023/07/13 08:22:18;;;;;;;9.13;2.50;;;;;;;-146.27;69.02;81321.66;5072881;28;20095;-73
2023/07/13 08:24:44;;;;;;;8.50;2.42;;;;;;;-146.27;69.27;81379.91;5067254;28;20111;-74
2023/07/13 08:27:13;;;;;;;6.20;1.95;;;;;;;-146.27;69.52;81361.84;5071700;28;20118;-71
2023/07/13 08:29:39;;;;;;;5.40;1.83;;;;;;;-146.27;68.77;81377.91;5069675;28;20036;-72
2023/07/13 08:32:09;;;;;;;7.65;2.17;;;;;;;-146.27;68.80;81335.72;5059954;28;20731;-73
2023/07/13 08:34:35;;;;;;;7.22;2.00;;;;;;;-146.27;69.38;81353.81;5068112;28;20032;-73
2023/07/13 08:37:01;;;;;;;8.82;2.38;;;;;;;-146.27;69.84;81319.66;5066077;28;20043;-73
2023/07/13 08:39:27;;;;;;;14.32;3.17;;;;;;;-146.27;69.71;81275.47;5072451;28;20028;-72
2023/07/13 08:42:01;;;;;;;6.50;2.35;;;;;;;-146.27;69.82;81277.50;5070476;28;20103;-72
2023/07/13 08:44:51;;;;;;;13.38;2.00;;;;;;;-146.27;69.75;81287.53;5068211;28;20399;-74
2023/07/13 08:47:20;;;;;;;9.10;1.92;;;;;;;-146.27;67.98;81387.94;5069582;28;20415;-71
2023/07/13 08:49:46;;;;;;;9.15;2.15;;;;;;;-146.27;67.17;81371.88;5071798;28;20039;-72
2023/07/13 08:52:36;;;;;;;4.82;1.90;;;;;;;-146.27;67.31;81313.63;5081493;28;20024;-72
2023/07/13 08:55:14;;;;;;;8.15;1.85;;;;;;;-146.27;67.22;81237.31;5074666;28;20045;-69
2023/07/13 08:57:43;;;;;;;6.85;2.15;;;;;;;-146.27;65.59;81211.22;5073685;28;20102;-69
2023/07/13 09:00:14;;;;;;;5.32;2.08;;;;;;;-146.27;65.89;81179.09;5069254;28;20091;-69
2023/07/13 09:02:52;;;;;;;7.88;2.35;;;;;;;-146.27;65.22;81159.00;5069697;28;20058;-69
2023/07/13 09:05:40;;;;;;;6.22;2.00;;;;;;;-146.27;64.79;81114.81;5071974;28;20029;-69
2023/07/13 09:08:31;;;;;;;8.13;2.13;;;;;;;-146.27;65.59;81207.19;5059882;28;20480;-69
2023/07/13 09:11:15;;;;;;;8.98;1.85;;;;;;;-146.27;64.45;81191.13;5069391;28;20032;-69
2023/07/13 09:13:50;;;;;;;;;;;;;;;-146.27;63.92;81155.00;5070325;28;20039;-69
2023/07/13 09:16:16;;;;;;;7.00;2.05;;;;;;;-146.27;64.29;81193.16;5054174;28;19916;-69
2023/07/13 09:18:47;;;;;;;6.88;1.85;;;;;;;-146.27;65.70;81245.34;5052148;28;20021;-68
2023/07/13 09:21:21;;;;;;;13.85;2.45;;;;;;;-146.27;66.11;81181.09;5070488;28;20024;-69
2023/07/13 09:23:48;;;;;;;5.97;3.33;;;;;;;-146.27;66.09;81090.72;5056853;28;20070;-69
2023/07/13 09:26:16;;;;;;;4.20;1.90;;;;;;;-146.27;63.78;81012.41;5052409;28;20036;-69
2023/07/13 09:28:45;;;;;;;9.27;2.33;;;;;;;-146.27;64.59;81215.22;5071898;28;20028;-69
2023/07/13 09:31:12;;;;;;;4.80;2.33;;;;;;;-146.27;64.79;81124.88;5072207;28;20085;-69
2023/07/13 09:33:38;;;;;;;8.07;2.10;;;;;;;-146.27;63.53;81159.00;5066566;28;20104;-69
2023/07/13 09:36:23;;;;;;;10.40;2.15;;;;;;;-146.27;63.65;81177.06;5071817;28;20028;-69
2023/07/13 09:38:58;;;;;;;5.90;2.08;;;;;;;-146.27;64.09;81177.06;5056589;28;20025;-69
2023/07/13 09:41:29;;;;;;;5.82;2.17;;;;;;;-146.27;64.61;81165.03;5064637;28;20037;-68
2023/07/13 09:44:13;;;;;;;6.75;2.08;;;;;;;-146.27;65.06;81241.34;5062501;28;20020;-69
2023/07/13 09:46:43;;;;;;;9.85;1.98;;;;;;;-146.27;65.37;81241.34;5071330;28;20029;-69
2023/07/13 09:49:12;;;;;;;4.40;1.98;;;;;;;-146.27;65.09;81171.06;5060608;28;20520;-69
2023/07/13 09:51:40;;;;;;;6.60;2.05;;;;;;;-146.27;63.81;81098.75;5065197;28;20028;-69
2023/07/13 09:54:20;;;;;;;11.07;2.53;;;;;;;-146.27;64.06;81108.81;5073774;28;20032;-69
2023/07/13 09:56:46;;;;;;;7.18;2.33;;;;;;;-146.27;63.66;81108.81;5071593;28;20116;-67
2023/07/13 09:59:20;;;;;;;7.85;2.35;;;;;;;-146.27;63.86;81026.47;5069881;28;20031;-68
2023/07/13 10:01:48;;;;;;;5.82;2.30;;;;;;;-146.27;61.48;81036.50;5072070;28;20530;-70
2023/07/13 10:04:18;;;;;;;7.22;2.22;;;;;;;-146.27;61.70;81002.38;5072607;28;20078;-67
2023/07/13 10:06:44;;;;;;;6.30;2.20;;;;;;;-146.27;61.82;80996.34;5079446;28;20112;-68
2023/07/13 10:09:10;;;;;;;8.65;1.95;;;;;;;-146.27;62.62;81054.56;5070231;28;20028;-69
2023/07/13 10:11:37;;;;;;;8.80;2.05;;;;;;;-146.27;62.68;80924.06;5065856;28;20090;-69
2023/07/13 10:14:15;;;;;;;8.68;2.20;;;;;;;-146.27;63.07;80972.25;5067946;28;20032;-69
2023/07/13 10:16:43;;;;;;;5.43;2.00;;;;;;;-146.27;63.57;81002.38;5068972;28;20442;-68
2023/07/13 10:19:22;;;;;;;7.10;2.10;;;;;;;-146.27;63.37;81032.50;5058576;28;20063;-68
2023/07/13 10:21:54;;;;;;;9.95;2.20;;;;;;;-146.27;62.87;80905.97;5054328;28;20373;-69
2023/07/13 10:24:26;;;;;;;5.80;2.10;;;;;;;-146.27;60.60;80897.94;5050995;28;20400;-69
2023/07/13 10:27:01;;;;;;;6.65;1.83;;;;;;;-146.27;60.06;80819.63;5060299;28;20028;-68
2023/07/13 10:29:29;;;;;;;5.93;1.95;;;;;;;-146.27;59.33;80817.63;5067653;28;20107;-69
2023/07/13 10:31:57;;;;;;;8.60;2.45;;;;;;;-146.27;59.93;80843.72;5068139;28;20031;-68
2023/07/13 10:34:23;;;;;;;8.15;2.20;;;;;;;-146.27;58.81;80920.03;5068588;28;20036;-68
2023/07/13 10:36:49;;;;;;;7.72;1.73;;;;;;;-146.27;59.38;80793.53;5064779;28;20050;-68
2023/07/13 10:39:23;;;;;;;6.88;2.08;;;;;;;-146.27;56.91;80805.56;5069948;28;20060;-69
2023/07/13 10:41:55;;;;;;;4.13;1.60;;;;;;;-146.27;57.15;80763.41;5071573;28;20063;-68
2023/07/13 10:44:32;;;;;;;6.72;1.92;;;;;;;-146.27;57.19;80805.56;5068408;28;20064;-68
2023/07/13 10:47:06;;;;;;;5.78;2.13;;;;;;;-146.27;57.98;80751.38;5075204;28;20647;-68
2023/07/13 10:49:35;;;;;;;7.30;2.55;;;;;;;-146.27;58.48;80632.91;5062575;28;20416;-68
2023/07/13 10:52:01;;;;;;;5.22;2.10;;;;;;;-146.27;53.63;80612.81;5069420;28;20547;-69
2023/07/13 10:54:29;;;;;;;5.80;2.10;;;;;;;-146.27;55.18;80729.28;5090508;28;20035;-68
2023/07/13 10:57:13;;;;;;;8.93;2.05;;;;;;;-146.27;54.94;80783.50;5072771;28;20047;-69
2023/07/13 10:59:41;;;;;;;5.10;2.22;;;;;;;-146.27;55.11;80721.25;5069490;28;20100;-68
2023/07/13 11:02:15;;;;;;;6.10;1.95;;;;;;;-146.27;57.00;80709.19;5086166;28;20484;-68
2023/07/13 11:04:49;;;;;;;7.38;1.98;;;;;;;-146.27;55.76;80542.53;5089057;28;20030;-68
2023/07/13 11:07:23;;;;;;;5.93;1.75;;;;;;;-146.27;56.27;80496.34;5053943;28;20102;-67
2023/07/13 11:09:52;;;;;;;;;;;;;;;-146.27;55.76;80534.50;5069513;28;20107;-68
2023/07/13 11:12:47;;;;;;;11.73;2.22;;;;;;;-146.27;56.00;80484.31;5079066;28;19916;-69
2023/07/13 11:15:13;;;;;;;10.13;2.50;;;;;;;-146.27;57.70;80604.78;5086289;28;20082;-69
2023/07/13 11:18:02;;;;;;;6.65;2.30;;;;;;;-146.27;57.19;80572.66;5071042;28;20024;-68